createdAt,value
2023-02-23T00:01:52.674Z,8.30
2023-02-23T00:04:19.511Z,8.30
2023-02-23T00:06:46.359Z,8.30
2023-02-23T00:09:23.058Z,8.30
2023-02-23T00:11:54.850Z,8.20
2023-02-23T00:14:27.395Z,8.20
2023-02-23T00:16:55.468Z,8.30
2023-02-23T00:19:24.623Z,8.30
2023-02-23T00:21:52.558Z,8.30
2023-02-23T00:24:20.214Z,8.30
2023-02-23T00:26:48.268Z,8.30
2023-02-23T00:29:21.413Z,8.30
2023-02-23T00:31:50.134Z,8.30
2023-02-23T00:34:21.916Z,8.30
2023-02-23T00:36:55.107Z,8.30
2023-02-23T00:39:26.462Z,8.30
2023-02-23T00:41:55.292Z,8.30
2023-02-23T00:44:23.629Z,8.40
2023-02-23T00:46:51.896Z,8.30
2023-02-23T00:49:20.734Z,8.40
2023-02-23T00:51:47.749Z,8.40
2023-02-23T00:54:15.923Z,8.30
2023-02-23T00:56:43.214Z,8.30
2023-02-23T00:59:10.828Z,8.30
2023-02-23T01:01:38.618Z,8.40
2023-02-23T01:04:07.328Z,8.40
2023-02-23T01:06:37.664Z,8.30
2023-02-23T01:09:21.902Z,8.30
2023-02-23T01:11:48.752Z,8.30
2023-02-23T01:14:15.801Z,8.20
2023-02-23T01:16:42.616Z,8.20
2023-02-23T01:19:10.439Z,8.30
2023-02-23T01:21:39.890Z,8.30
2023-02-23T01:24:07.309Z,8.30
2023-02-23T01:26:36.454Z,8.30
2023-02-23T01:29:15.252Z,8.30
2023-02-23T01:31:45.305Z,8.30
2023-02-23T01:34:14.109Z,8.30
2023-02-23T01:36:43.097Z,8.50
2023-02-23T01:39:13.396Z,8.30
2023-02-23T01:41:42.406Z,8.40
2023-02-23T01:44:32.067Z,8.30
2023-02-23T01:46:59.022Z,8.20
2023-02-23T01:49:31.645Z,8.20
2023-02-23T01:52:10.834Z,8.30
2023-02-23T01:54:42.709Z,8.30
2023-02-23T01:57:13.608Z,8.40
2023-02-23T01:59:44.430Z,8.30
2023-02-23T02:02:13.306Z,8.40
2023-02-23T02:04:45.201Z,8.20
2023-02-23T02:07:24.945Z,8.30
2023-02-23T02:10:12.802Z,8.30
2023-02-23T02:12:42.584Z,8.20
2023-02-23T02:15:17.221Z,8.20
2023-02-23T02:17:45.126Z,8.20
2023-02-23T02:20:33.805Z,8.30
2023-02-23T02:23:04.235Z,8.20
2023-02-23T02:25:57.999Z,8.20
2023-02-23T02:28:52.292Z,8.30
2023-02-23T02:35:10.959Z,8.20
2023-02-23T02:37:48.643Z,8.10
2023-02-23T02:40:32.489Z,8.10
2023-02-23T02:43:21.094Z,8.20
2023-02-23T02:46:01.948Z,8.20
2023-02-23T02:49:06.330Z,8.20
2023-02-23T02:51:46.390Z,8.30
2023-02-23T02:54:53.602Z,8.30
2023-02-23T02:57:25.121Z,8.20
2023-02-23T03:00:11.015Z,8.20
2023-02-23T03:02:58.710Z,8.30
2023-02-23T03:06:05.980Z,8.30
2023-02-23T03:09:04.746Z,8.30
2023-02-23T03:12:02.114Z,8.20
2023-02-23T03:14:56.652Z,8.20
2023-02-23T03:18:01.018Z,8.20
2023-02-23T03:20:52.418Z,8.20
2023-02-23T03:24:07.021Z,8.20
2023-02-23T03:27:14.890Z,8.20
2023-02-23T03:30:16.988Z,8.20
2023-02-23T03:33:08.991Z,8.20
2023-02-23T03:36:02.189Z,8.10
2023-02-23T03:38:54.396Z,8.10
2023-02-23T03:41:41.856Z,8.20
2023-02-23T03:44:52.913Z,8.20
2023-02-23T03:47:44.322Z,8.10
2023-02-23T03:50:37.835Z,8.20
2023-02-23T03:53:25.878Z,8.30
2023-02-23T03:56:15.755Z,8.30
2023-02-23T03:59:38.979Z,8.40
2023-02-23T04:06:27.578Z,8.30
2023-02-23T04:09:17.618Z,8.30
2023-02-23T04:12:11.509Z,8.30
2023-02-23T04:14:54.365Z,8.20
2023-02-23T04:17:25.087Z,8.30
2023-02-23T04:19:53.588Z,8.30
2023-02-23T04:22:20.978Z,8.20
2023-02-23T04:24:48.170Z,8.20
2023-02-23T04:27:15.481Z,8.20
2023-02-23T04:29:42.423Z,8.20
2023-02-23T04:32:18.456Z,8.30
2023-02-23T04:34:45.500Z,8.30
2023-02-23T04:37:13.369Z,8.30
2023-02-23T04:39:40.203Z,8.30
2023-02-23T04:42:07.024Z,8.30
2023-02-23T04:44:33.826Z,8.30
2023-02-23T04:47:00.649Z,8.20
2023-02-23T04:49:27.680Z,8.20
2023-02-23T04:51:54.625Z,8.20
2023-02-23T04:54:21.391Z,8.30
2023-02-23T04:56:48.224Z,8.30
2023-02-23T04:59:15.008Z,8.30
2023-02-23T05:01:41.953Z,8.30
2023-02-23T05:04:08.793Z,8.30
2023-02-23T05:06:35.826Z,8.30
2023-02-23T05:09:03.289Z,8.30
2023-02-23T05:11:30.340Z,8.20
2023-02-23T05:13:57.145Z,8.20
2023-02-23T05:16:24.244Z,8.30
2023-02-23T05:18:51.112Z,8.20
2023-02-23T05:21:18.438Z,8.30
2023-02-23T05:23:45.829Z,8.40
2023-02-23T05:26:13.265Z,8.30
2023-02-23T05:28:41.783Z,8.30
2023-02-23T05:31:09.310Z,8.30
2023-02-23T05:33:42.471Z,8.20
2023-02-23T05:36:11.475Z,8.30
2023-02-23T05:38:39.711Z,8.20
2023-02-23T05:41:11.904Z,8.20
2023-02-23T05:43:39.207Z,8.20
2023-02-23T05:46:10.964Z,8.30
2023-02-23T05:48:38.500Z,8.30
2023-02-23T05:51:08.765Z,8.30
2023-02-23T05:53:36.197Z,8.40
2023-02-23T05:56:05.036Z,8.30
2023-02-23T05:58:32.006Z,8.30
2023-02-23T06:00:59.064Z,8.30
2023-02-23T06:03:26.373Z,8.30
2023-02-23T06:05:55.166Z,8.30
2023-02-23T06:08:22.068Z,8.30
2023-02-23T06:10:48.986Z,8.30
2023-02-23T06:13:16.337Z,8.30
2023-02-23T06:15:43.777Z,8.30
2023-02-23T06:18:10.821Z,8.30
2023-02-23T06:20:40.309Z,8.30
2023-02-23T06:23:07.569Z,8.30
2023-02-23T06:25:34.536Z,8.20
2023-02-23T06:28:01.376Z,8.20
2023-02-23T06:30:28.193Z,8.20
2023-02-23T06:32:55.105Z,8.20
2023-02-23T06:35:22.070Z,8.20
2023-02-23T06:37:49.062Z,8.20
2023-02-23T06:40:16.330Z,8.30
2023-02-23T06:42:43.396Z,8.30
2023-02-23T06:45:10.853Z,8.40
2023-02-23T06:47:37.804Z,8.30
2023-02-23T06:50:05.133Z,8.30
2023-02-23T06:52:32.018Z,8.30
2023-02-23T06:54:58.956Z,8.40
2023-02-23T06:57:25.984Z,8.40
2023-02-23T06:59:53.346Z,8.40
2023-02-23T07:02:20.326Z,8.40
2023-02-23T07:04:47.533Z,8.30
2023-02-23T07:07:14.675Z,8.30
2023-02-23T07:09:42.842Z,8.20
2023-02-23T07:12:10.691Z,8.40
2023-02-23T07:14:37.707Z,8.30
2023-02-23T07:17:05.273Z,8.30
2023-02-23T07:19:32.748Z,8.30
2023-02-23T07:21:59.656Z,8.40
2023-02-23T07:24:28.134Z,8.30
2023-02-23T07:26:56.730Z,8.30
2023-02-23T07:29:24.108Z,8.30
2023-02-23T07:31:51.209Z,8.30
2023-02-23T07:34:18.171Z,8.30
2023-02-23T07:36:44.976Z,8.30
2023-02-23T07:39:12.870Z,8.30
2023-02-23T07:41:39.782Z,8.30
2023-02-23T07:44:06.665Z,8.30
2023-02-23T07:46:33.498Z,8.30
2023-02-23T07:49:00.262Z,8.30
2023-02-23T07:51:27.098Z,8.30
2023-02-23T07:53:55.126Z,8.30
2023-02-23T07:56:22.012Z,8.30
2023-02-23T07:58:48.920Z,8.40
2023-02-23T08:01:16.083Z,8.50
2023-02-23T08:03:49.369Z,8.40
2023-02-23T08:06:20.399Z,8.40
2023-02-23T08:08:47.435Z,8.40
2023-02-23T08:11:15.780Z,8.40
2023-02-23T08:13:42.834Z,8.40
2023-02-23T08:16:09.731Z,8.40
2023-02-23T08:18:36.592Z,8.50
2023-02-23T08:21:04.984Z,8.40
2023-02-23T08:23:35.072Z,8.50
2023-02-23T08:26:02.400Z,8.50
2023-02-23T08:28:30.520Z,8.40
2023-02-23T08:30:59.275Z,8.40
2023-02-23T08:33:26.522Z,8.30
2023-02-23T08:35:53.718Z,8.30
2023-02-23T08:38:20.873Z,8.30
2023-02-23T08:40:47.745Z,8.30
2023-02-23T08:43:14.557Z,8.30
2023-02-23T08:45:41.394Z,8.40
2023-02-23T08:48:09.002Z,8.40
2023-02-23T08:50:35.935Z,8.30
2023-02-23T08:53:04.109Z,8.20
2023-02-23T08:55:31.077Z,8.30
2023-02-23T08:57:58.596Z,8.30
2023-02-23T09:00:25.483Z,8.30
2023-02-23T09:02:52.629Z,8.30
2023-02-23T09:05:20.296Z,8.30
2023-02-23T09:07:47.628Z,8.30
2023-02-23T09:10:20.216Z,8.30
2023-02-23T09:12:47.144Z,8.20
2023-02-23T09:15:13.914Z,8.30
2023-02-23T09:17:44.748Z,8.30
2023-02-23T09:20:13.574Z,8.30
2023-02-23T09:22:45.494Z,8.30
2023-02-23T09:25:12.795Z,8.40
2023-02-23T09:27:39.673Z,8.30
2023-02-23T09:30:07.000Z,8.40
2023-02-23T09:32:34.025Z,8.30
2023-02-23T09:35:01.015Z,8.30
2023-02-23T09:37:27.895Z,8.30
2023-02-23T09:39:56.638Z,8.30
2023-02-23T09:42:30.879Z,8.30
2023-02-23T09:45:33.894Z,8.50
2023-02-23T09:48:28.365Z,8.30
2023-02-23T09:50:57.649Z,8.40
2023-02-23T09:53:33.929Z,8.50
2023-02-23T09:56:04.244Z,8.50
2023-02-23T09:58:33.884Z,8.40
2023-02-23T10:01:19.774Z,8.30
2023-02-23T10:04:02.477Z,8.30
2023-02-23T10:06:29.689Z,8.40
2023-02-23T10:09:20.909Z,8.50
2023-02-23T10:12:26.350Z,8.50
2023-02-23T10:15:12.775Z,8.50
2023-02-23T10:17:42.452Z,8.60
2023-02-23T10:20:33.137Z,8.60
2023-02-23T10:23:07.243Z,8.70
2023-02-23T10:25:38.521Z,8.80
2023-02-23T10:28:06.112Z,8.80
2023-02-23T10:30:34.886Z,8.80
2023-02-23T10:33:40.378Z,8.70
2023-02-23T10:36:19.580Z,8.80
2023-02-23T10:38:47.016Z,8.90
2023-02-23T10:41:15.054Z,9.20
2023-02-23T10:43:42.304Z,9.20
2023-02-23T10:46:19.301Z,9.20
2023-02-23T10:48:47.062Z,9.10
2023-02-23T10:51:20.155Z,9.30
2023-02-23T10:53:47.536Z,9.30
2023-02-23T10:56:18.383Z,9.20
2023-02-23T10:58:55.160Z,9.20
2023-02-23T11:02:00.946Z,9.10
2023-02-23T11:04:34.977Z,9.10
2023-02-23T11:07:15.453Z,9.10
2023-02-23T11:09:47.424Z,9.20
2023-02-23T11:12:25.367Z,9.20
2023-02-23T11:14:58.921Z,9.20
2023-02-23T11:17:32.595Z,9.30
2023-02-23T11:20:03.767Z,9.30
2023-02-23T11:22:41.030Z,9.40
2023-02-23T11:25:43.208Z,9.40
2023-02-23T11:28:20.984Z,9.30
2023-02-23T11:30:49.230Z,9.20
2023-02-23T11:33:20.125Z,9.20
2023-02-23T11:35:46.974Z,9.10
2023-02-23T11:38:23.073Z,9.00
2023-02-23T11:41:11.940Z,9.00
2023-02-23T11:43:47.466Z,8.90
2023-02-23T11:46:14.657Z,8.90
2023-02-23T11:48:51.688Z,8.90
2023-02-23T11:51:37.111Z,8.90
2023-02-23T11:54:06.026Z,8.90
2023-02-23T11:56:35.366Z,9.10
2023-02-23T11:59:07.431Z,9.20
2023-02-23T12:01:48.022Z,9.20
2023-02-23T12:04:37.136Z,9.30
2023-02-23T12:07:44.147Z,9.20
2023-02-23T12:10:26.667Z,9.30
2023-02-23T12:13:31.206Z,9.30
2023-02-23T12:16:13.007Z,9.20
2023-02-23T12:18:49.746Z,9.20
2023-02-23T12:21:19.593Z,9.10
2023-02-23T12:23:50.810Z,9.10
2023-02-23T12:26:22.684Z,9.20
2023-02-23T12:29:30.331Z,9.40
2023-02-23T12:32:23.988Z,9.50
2023-02-23T12:35:21.910Z,9.70
2023-02-23T12:37:54.968Z,9.80
2023-02-23T12:40:35.817Z,9.70
2023-02-23T12:43:11.961Z,9.70
2023-02-23T12:45:46.056Z,9.70
2023-02-23T12:48:37.423Z,9.60
2023-02-23T12:51:12.500Z,9.50
2023-02-23T12:53:44.227Z,9.60
2023-02-23T12:56:35.749Z,9.70
2023-02-23T12:59:37.822Z,9.60
2023-02-23T13:02:15.785Z,9.70
2023-02-23T13:04:48.336Z,9.70
2023-02-23T13:07:39.675Z,9.70
2023-02-23T13:10:32.018Z,9.80
2023-02-23T13:13:12.788Z,9.90
2023-02-23T13:15:48.852Z,9.80
2023-02-23T13:18:47.488Z,9.80
2023-02-23T13:21:22.775Z,9.80
2023-02-23T13:24:04.562Z,9.80
2023-02-23T13:26:47.064Z,9.80
2023-02-23T13:29:34.180Z,9.80
2023-02-23T13:32:03.164Z,9.70
2023-02-23T13:34:34.535Z,9.70
2023-02-23T13:37:05.406Z,9.70
2023-02-23T13:39:55.955Z,9.70
2023-02-23T13:43:09.722Z,9.70
2023-02-23T13:45:44.473Z,9.60
2023-02-23T13:48:30.088Z,9.60
2023-02-23T13:51:15.091Z,9.40
2023-02-23T13:53:47.858Z,9.40
2023-02-23T13:56:21.939Z,9.50
2023-02-23T13:59:01.377Z,9.50
2023-02-23T14:01:44.958Z,9.40
2023-02-23T14:04:21.295Z,9.40
2023-02-23T14:06:57.234Z,9.30
2023-02-23T14:09:30.859Z,9.30
2023-02-23T14:12:16.849Z,9.30
2023-02-23T14:14:46.019Z,9.20
2023-02-23T14:17:15.667Z,9.20
2023-02-23T14:20:15.372Z,9.30
2023-02-23T14:23:21.916Z,9.30
2023-02-23T14:25:53.372Z,9.20
2023-02-23T14:28:31.196Z,9.20
2023-02-23T14:31:21.261Z,9.30
2023-02-23T14:33:49.718Z,9.30
2023-02-23T14:36:25.402Z,9.30
2023-02-23T14:39:01.260Z,9.30
2023-02-23T14:41:30.845Z,9.30
2023-02-23T14:44:28.278Z,9.40
2023-02-23T14:47:06.442Z,9.40
2023-02-23T14:49:37.824Z,9.30
2023-02-23T14:52:43.181Z,9.30
2023-02-23T14:55:13.074Z,9.30
2023-02-23T14:57:41.583Z,9.30
2023-02-23T15:00:23.285Z,9.30
2023-02-23T15:03:06.062Z,9.30
2023-02-23T15:05:42.033Z,9.30
2023-02-23T15:08:21.027Z,9.20
2023-02-23T15:10:51.551Z,9.10
2023-02-23T15:13:29.371Z,9.10
2023-02-23T15:16:03.861Z,9.00
2023-02-23T15:18:41.779Z,9.00
2023-02-23T15:21:16.367Z,8.90
2023-02-23T15:23:50.442Z,9.00
2023-02-23T15:26:31.754Z,8.90
2023-02-23T15:29:10.941Z,8.90
2023-02-23T15:31:40.783Z,8.90
2023-02-23T15:34:11.269Z,8.80
2023-02-23T15:36:40.001Z,8.80
2023-02-23T15:39:12.256Z,8.80
2023-02-23T15:41:39.972Z,8.80
2023-02-23T15:44:24.152Z,8.70
2023-02-23T15:47:03.694Z,8.60
2023-02-23T15:49:38.071Z,8.60
2023-02-23T15:52:14.665Z,8.50
2023-02-23T15:54:47.980Z,8.40
2023-02-23T15:57:27.502Z,8.30
2023-02-23T15:59:58.891Z,8.40
2023-02-23T16:02:26.041Z,8.30
2023-02-23T16:04:53.684Z,8.30
2023-02-23T16:07:23.777Z,8.30
2023-02-23T16:09:54.697Z,8.40
2023-02-23T16:12:32.631Z,8.20
2023-02-23T16:15:26.926Z,8.20
2023-02-23T16:18:00.494Z,8.00
2023-02-23T16:20:34.763Z,8.10
2023-02-23T16:23:02.957Z,8.10
2023-02-23T16:25:31.731Z,8.10
2023-02-23T16:28:09.623Z,8.00
2023-02-23T16:30:43.354Z,7.90
2023-02-23T16:33:25.252Z,7.80
2023-02-23T16:36:14.472Z,7.70
2023-02-23T16:38:52.875Z,7.70
2023-02-23T16:41:22.108Z,7.60
2023-02-23T16:43:51.464Z,7.50
2023-02-23T16:46:19.980Z,7.40
2023-02-23T16:48:47.210Z,7.30
2023-02-23T16:51:19.302Z,7.10
2023-02-23T16:53:46.543Z,7.20
2023-02-23T16:56:17.747Z,7.00
2023-02-23T16:58:47.266Z,6.90
2023-02-23T17:01:16.451Z,6.80
2023-02-23T17:03:52.751Z,6.60
2023-02-23T17:06:23.506Z,6.60
2023-02-23T17:08:58.098Z,6.60
2023-02-23T17:11:26.053Z,6.40
2023-02-23T17:13:52.912Z,6.30
2023-02-23T17:16:20.125Z,6.20
2023-02-23T17:18:47.449Z,6.10
2023-02-23T17:21:14.801Z,6.10
2023-02-23T17:23:51.222Z,6.10
2023-02-23T17:26:21.207Z,6.20
2023-02-23T17:28:48.261Z,6.00
2023-02-23T17:31:17.417Z,5.90
2023-02-23T17:33:45.159Z,5.80
2023-02-23T17:36:15.480Z,5.70
2023-02-23T17:38:44.640Z,5.70
2023-02-23T17:41:18.043Z,5.50
2023-02-23T17:43:45.166Z,5.40
2023-02-23T17:46:13.148Z,5.40
2023-02-23T17:48:44.387Z,5.40
2023-02-23T17:51:12.741Z,5.40
2023-02-23T17:53:40.656Z,5.40
2023-02-23T17:56:08.500Z,5.40
2023-02-23T17:58:36.112Z,5.40
2023-02-23T18:01:04.904Z,5.30
2023-02-23T18:03:34.619Z,5.30
2023-02-23T18:06:03.312Z,5.30
2023-02-23T18:08:30.238Z,5.20
2023-02-23T18:10:58.383Z,5.10
2023-02-23T18:13:26.840Z,5.10
2023-02-23T18:15:58.435Z,5.10
2023-02-23T18:18:25.381Z,5.10
2023-02-23T18:20:54.945Z,5.10
2023-02-23T18:23:22.789Z,5.10
2023-02-23T18:25:50.278Z,5.10
2023-02-23T18:28:18.042Z,5.10
2023-02-23T18:30:45.529Z,5.20
2023-02-23T18:33:13.117Z,5.00
2023-02-23T18:35:44.946Z,5.10
2023-02-23T18:38:13.841Z,5.00
2023-02-23T18:40:40.908Z,5.00
2023-02-23T18:43:08.268Z,5.00
2023-02-23T18:45:35.252Z,4.90
2023-02-23T18:48:02.590Z,4.90
2023-02-23T18:50:29.566Z,4.90
2023-02-23T18:52:58.080Z,4.90
2023-02-23T18:55:25.124Z,4.90
2023-02-23T18:57:55.249Z,4.90
2023-02-23T19:00:22.707Z,4.80
2023-02-23T19:02:49.629Z,4.80
2023-02-23T19:05:20.746Z,4.90
2023-02-23T19:07:48.421Z,4.90
2023-02-23T19:10:16.156Z,4.90
2023-02-23T19:12:43.472Z,4.90
2023-02-23T19:15:10.702Z,5.00
2023-02-23T19:17:37.610Z,4.90
2023-02-23T19:20:08.171Z,4.90
2023-02-23T19:22:35.240Z,4.90
2023-02-23T19:25:02.310Z,4.80
2023-02-23T19:27:29.145Z,4.80
2023-02-23T19:29:55.951Z,4.90
2023-02-23T19:32:22.909Z,4.90
2023-02-23T19:34:49.765Z,4.90
2023-02-23T19:37:16.735Z,5.00
2023-02-23T19:39:44.969Z,5.00
2023-02-23T19:42:12.131Z,5.00
2023-02-23T19:44:38.920Z,5.10
2023-02-23T19:47:05.741Z,5.10
2023-02-23T19:49:32.566Z,5.00
2023-02-23T19:52:00.702Z,4.90
2023-02-23T19:54:28.618Z,5.20
2023-02-23T19:56:56.812Z,5.20
2023-02-23T19:59:24.318Z,5.10
2023-02-23T20:01:51.613Z,5.10
2023-02-23T20:04:18.545Z,5.10
2023-02-23T20:06:47.243Z,5.10
2023-02-23T20:09:14.809Z,5.10
2023-02-23T20:11:42.588Z,5.00
2023-02-23T20:14:09.973Z,5.00
2023-02-23T20:16:37.015Z,5.00
2023-02-23T20:19:06.404Z,5.00
2023-02-23T20:21:33.878Z,5.00
2023-02-23T20:24:01.612Z,4.90
2023-02-23T20:26:34.203Z,5.00
2023-02-23T20:29:01.516Z,4.90
2023-02-23T20:31:35.117Z,4.90
2023-02-23T20:34:04.873Z,4.90
2023-02-23T20:36:32.347Z,4.90
2023-02-23T20:38:59.956Z,4.90
2023-02-23T20:41:28.551Z,4.90
2023-02-23T20:43:56.713Z,4.90
2023-02-23T20:46:24.256Z,4.90
2023-02-23T20:48:51.113Z,4.90
2023-02-23T20:51:19.283Z,4.90
2023-02-23T20:53:48.138Z,4.80
2023-02-23T20:56:17.476Z,4.80
2023-02-23T20:58:44.662Z,4.90
2023-02-23T21:01:22.365Z,5.00
2023-02-23T21:03:51.475Z,5.00
2023-02-23T21:06:23.503Z,5.00
2023-02-23T21:08:56.083Z,4.90
2023-02-23T21:11:27.403Z,4.90
2023-02-23T21:13:54.379Z,5.00
2023-02-23T21:16:23.627Z,4.90
2023-02-23T21:18:57.061Z,5.10
2023-02-23T21:21:23.996Z,4.90
2023-02-23T21:23:51.247Z,5.00
2023-02-23T21:26:21.528Z,5.00
2023-02-23T21:28:49.158Z,5.00
2023-02-23T21:31:16.059Z,5.10
2023-02-23T21:33:43.925Z,5.00
2023-02-23T21:36:12.433Z,5.00
2023-02-23T21:38:41.141Z,5.00
2023-02-23T21:41:10.200Z,5.00
2023-02-23T21:43:39.229Z,5.00
2023-02-23T21:46:11.523Z,5.00
2023-02-23T21:48:38.393Z,5.00
2023-02-23T21:51:07.913Z,5.10
2023-02-23T21:53:37.419Z,5.00
2023-02-23T21:56:11.780Z,5.00
2023-02-23T21:58:40.041Z,5.00
2023-02-23T22:01:15.207Z,4.90
2023-02-23T22:03:45.165Z,5.00
2023-02-23T22:06:18.248Z,5.00
2023-02-23T22:08:50.022Z,5.00
2023-02-23T22:11:24.608Z,5.10
2023-02-23T22:13:58.702Z,5.10
2023-02-23T22:16:28.828Z,5.00
2023-02-23T22:18:55.805Z,4.90
2023-02-23T22:21:23.536Z,5.00
2023-02-23T22:23:50.503Z,4.90
2023-02-23T22:26:17.852Z,5.00
2023-02-23T22:28:44.963Z,5.00
2023-02-23T22:31:13.895Z,5.00
2023-02-23T22:33:43.936Z,5.00
2023-02-23T22:36:13.520Z,5.10
2023-02-23T22:38:41.505Z,5.00
2023-02-23T22:41:14.489Z,5.00
2023-02-23T22:43:47.659Z,5.00
2023-02-23T22:46:16.415Z,5.10
2023-02-23T22:48:44.959Z,5.10
2023-02-23T22:51:13.779Z,5.10
2023-02-23T22:53:40.791Z,5.10
2023-02-23T22:56:08.512Z,5.20
2023-02-23T22:58:36.312Z,5.20
2023-02-23T23:01:05.936Z,5.20
2023-02-23T23:03:46.522Z,5.10
2023-02-23T23:06:17.130Z,5.20
2023-02-23T23:08:45.625Z,5.10
2023-02-23T23:11:19.145Z,5.20
2023-02-23T23:13:49.108Z,5.20
2023-02-23T23:16:30.757Z,5.10
2023-02-23T23:19:04.598Z,5.10
2023-02-23T23:21:34.064Z,5.10
2023-02-23T23:24:05.903Z,5.00
2023-02-23T23:26:35.727Z,5.00
2023-02-23T23:29:05.851Z,5.00
2023-02-23T23:31:34.816Z,5.00
2023-02-23T23:34:05.941Z,5.20
2023-02-23T23:36:46.260Z,5.00
2023-02-23T23:39:16.234Z,5.00
2023-02-23T23:41:47.994Z,5.10
2023-02-23T23:44:24.303Z,5.00
2023-02-23T23:46:51.394Z,5.00
2023-02-23T23:49:21.165Z,5.00
2023-02-23T23:51:50.710Z,5.10
2023-02-23T23:54:23.588Z,5.00
2023-02-23T23:56:51.156Z,5.00
2023-02-23T23:59:21.499Z,5.00
